createdAt,value
2022-09-06T00:01:11.978Z,62.31
2022-09-06T00:03:40.143Z,61.53
2022-09-06T00:06:10.190Z,61.62
2022-09-06T00:08:38.477Z,61.77
2022-09-06T00:11:07.299Z,60.75
2022-09-06T00:13:35.963Z,61.16
2022-09-06T00:16:19.186Z,60.81
2022-09-06T00:18:47.263Z,62.34
2022-09-06T00:21:20.877Z,61.71
2022-09-06T00:23:48.757Z,62.86
2022-09-06T00:26:16.516Z,63.47
2022-09-06T00:28:44.330Z,63.33
2022-09-06T00:31:23.595Z,62.95
2022-09-06T00:33:51.935Z,63.56
2022-09-06T00:36:20.862Z,62.96
2022-09-06T00:38:48.887Z,63.59
2022-09-06T00:41:17.439Z,63.56
2022-09-06T00:43:45.371Z,63.57
2022-09-06T00:46:18.066Z,63.23
2022-09-06T00:48:49.179Z,63.14
2022-09-06T00:51:18.281Z,63.28
2022-09-06T00:53:46.245Z,63.51
2022-09-06T00:56:14.412Z,63.94
2022-09-06T00:58:42.444Z,63.19
2022-09-06T01:01:10.594Z,64.09
2022-09-06T01:03:38.922Z,63.56
2022-09-06T01:06:20.196Z,63.31
2022-09-06T01:09:05.829Z,63.58
2022-09-06T01:12:10.652Z,63.19
2022-09-06T01:14:55.409Z,62.59
2022-09-06T01:17:52.468Z,62.43
2022-09-06T01:20:25.905Z,63.92
2022-09-06T01:23:12.113Z,63.70
2022-09-06T01:26:07.377Z,63.30
2022-09-06T01:28:42.837Z,64.10
2022-09-06T01:31:25.254Z,63.50
2022-09-06T01:34:17.787Z,60.38
2022-09-06T01:37:09.435Z,61.19
2022-09-06T01:39:40.349Z,62.30
2022-09-06T01:42:15.967Z,63.67
2022-09-06T01:44:47.671Z,63.31
2022-09-06T01:47:35.414Z,63.90
2022-09-06T01:50:21.146Z,64.04
2022-09-06T01:53:10.065Z,64.62
2022-09-06T01:55:56.107Z,63.97
2022-09-06T01:58:41.844Z,64.56
2022-09-06T02:01:42.726Z,65.76
2022-09-06T02:04:28.881Z,64.58
2022-09-06T02:07:03.290Z,66.85
2022-09-06T02:09:36.798Z,68.23
2022-09-06T02:12:06.948Z,68.20
2022-09-06T02:14:43.088Z,69.33
2022-09-06T02:17:16.585Z,69.54
2022-09-06T02:20:10.106Z,70.77
2022-09-06T02:22:41.676Z,70.54
2022-09-06T02:25:12.770Z,71.48
2022-09-06T02:27:40.334Z,70.50
2022-09-06T02:30:08.569Z,71.52
2022-09-06T02:32:41.017Z,71.87
2022-09-06T02:35:14.062Z,70.90
2022-09-06T02:37:43.234Z,70.93
2022-09-06T02:40:11.586Z,71.38
2022-09-06T02:42:40.573Z,71.13
2022-09-06T02:45:09.070Z,71.09
2022-09-06T02:47:36.615Z,70.55
2022-09-06T02:50:04.419Z,70.19
2022-09-06T02:52:31.904Z,70.33
2022-09-06T02:54:59.397Z,70.57
2022-09-06T02:57:26.918Z,70.23
2022-09-06T02:59:54.629Z,71.13
2022-09-06T03:02:22.198Z,70.86
2022-09-06T03:04:49.750Z,71.50
2022-09-06T03:07:17.411Z,71.14
2022-09-06T03:09:45.071Z,71.13
2022-09-06T03:12:12.488Z,70.93
2022-09-06T03:14:41.287Z,70.21
2022-09-06T03:17:08.851Z,70.24
2022-09-06T03:19:36.424Z,70.66
2022-09-06T03:22:04.243Z,70.61
2022-09-06T03:24:31.665Z,71.33
2022-09-06T03:26:59.178Z,71.63
2022-09-06T03:29:26.730Z,71.36
2022-09-06T03:31:54.189Z,72.10
2022-09-06T03:34:21.752Z,70.89
2022-09-06T03:36:49.313Z,71.16
2022-09-06T03:39:16.738Z,69.91
2022-09-06T03:41:44.502Z,69.78
2022-09-06T03:44:12.292Z,70.54
2022-09-06T03:46:40.136Z,70.50
2022-09-06T03:49:10.222Z,70.81
2022-09-06T03:51:37.755Z,71.01
2022-09-06T03:54:05.266Z,71.10
2022-09-06T03:56:32.748Z,71.10
2022-09-06T03:59:00.591Z,71.40
2022-09-06T04:01:28.308Z,71.01
2022-09-06T04:03:55.835Z,70.97
2022-09-06T04:06:23.560Z,70.10
2022-09-06T04:08:51.038Z,69.17
2022-09-06T04:11:18.745Z,70.48
2022-09-06T04:13:46.463Z,71.28
2022-09-06T04:16:14.045Z,70.26
2022-09-06T04:18:41.612Z,70.94
2022-09-06T04:21:09.422Z,70.88
2022-09-06T04:23:39.905Z,71.84
2022-09-06T04:26:07.835Z,72.32
2022-09-06T04:28:35.367Z,71.69
2022-09-06T04:31:05.328Z,71.49
2022-09-06T04:33:34.422Z,72.03
2022-09-06T04:36:04.418Z,73.10
2022-09-06T04:38:39.478Z,71.88
2022-09-06T04:41:07.816Z,70.68
2022-09-06T04:43:35.846Z,70.89
2022-09-06T04:46:13.565Z,71.05
2022-09-06T04:48:41.100Z,71.69
2022-09-06T04:51:08.676Z,72.20
2022-09-06T04:53:36.480Z,72.75
2022-09-06T04:56:04.343Z,72.30
2022-09-06T04:58:32.454Z,71.10
2022-09-06T05:01:00.051Z,71.64
2022-09-06T05:03:27.820Z,71.39
2022-09-06T05:06:04.801Z,71.42
2022-09-06T05:08:32.631Z,72.24
2022-09-06T05:11:00.326Z,73.10
2022-09-06T05:13:27.887Z,73.23
2022-09-06T05:15:55.445Z,72.54
2022-09-06T05:18:23.027Z,72.20
2022-09-06T05:20:54.244Z,72.32
2022-09-06T05:23:22.878Z,72.78
2022-09-06T05:25:50.402Z,72.95
2022-09-06T05:28:18.686Z,73.10
2022-09-06T05:30:47.156Z,71.87
2022-09-06T05:33:20.431Z,70.96
2022-09-06T05:35:48.719Z,69.97
2022-09-06T05:38:16.390Z,68.99
2022-09-06T05:40:44.212Z,67.70
2022-09-06T05:43:12.115Z,68.27
2022-09-06T05:45:39.841Z,67.47
2022-09-06T05:48:08.656Z,65.79
2022-09-06T05:50:36.197Z,66.94
2022-09-06T05:53:04.001Z,65.75
2022-09-06T05:55:31.682Z,65.59
2022-09-06T05:57:59.456Z,66.22
2022-09-06T06:00:27.194Z,66.07
2022-09-06T06:02:54.673Z,66.56
2022-09-06T06:05:22.444Z,69.00
2022-09-06T06:07:50.236Z,70.15
2022-09-06T06:10:17.907Z,69.44
2022-09-06T06:12:45.751Z,69.00
2022-09-06T06:15:13.485Z,69.22
2022-09-06T06:17:41.187Z,68.30
2022-09-06T06:20:09.403Z,67.48
2022-09-06T06:22:37.289Z,67.01
2022-09-06T06:25:05.471Z,66.16
2022-09-06T06:27:34.910Z,65.99
2022-09-06T06:30:02.952Z,65.82
2022-09-06T06:32:30.703Z,64.79
2022-09-06T06:34:58.459Z,64.62
2022-09-06T06:37:26.205Z,66.17
2022-09-06T06:39:54.027Z,65.03
2022-09-06T06:42:21.980Z,64.61
2022-09-06T06:44:53.554Z,64.22
2022-09-06T06:47:21.335Z,62.79
2022-09-06T06:49:49.172Z,63.74
2022-09-06T06:52:17.138Z,62.58
2022-09-06T06:54:45.160Z,63.06
2022-09-06T06:57:12.775Z,61.24
2022-09-06T06:59:40.551Z,60.68
2022-09-06T07:02:08.508Z,61.81
2022-09-06T07:04:36.374Z,61.53
2022-09-06T07:12:41.284Z,58.45
2022-09-06T07:15:09.699Z,58.15
2022-09-06T07:17:37.860Z,57.70
2022-09-06T07:20:13.737Z,56.52
2022-09-06T07:22:42.822Z,58.69
2022-09-06T07:25:14.359Z,59.08
2022-09-06T07:30:14.311Z,57.70
2022-09-06T07:32:42.156Z,56.43
2022-09-06T07:35:09.939Z,57.82
2022-09-06T07:37:37.579Z,58.77
2022-09-06T07:40:05.447Z,58.55
2022-09-06T07:42:36.284Z,57.73
2022-09-06T07:45:05.520Z,57.39
2022-09-06T07:53:13.853Z,57.14
2022-09-06T07:55:45.276Z,56.39
2022-09-06T07:58:13.149Z,56.32
2022-09-06T08:00:41.435Z,55.72
2022-09-06T08:03:09.440Z,56.76
2022-09-06T08:11:13.919Z,57.44
2022-09-06T08:13:42.320Z,57.70
2022-09-06T08:16:12.008Z,57.79
2022-09-06T08:18:39.755Z,58.19
2022-09-06T08:21:13.175Z,57.53
2022-09-06T08:23:45.091Z,56.99
2022-09-06T08:26:13.018Z,56.97
2022-09-06T08:28:40.692Z,56.78
2022-09-06T08:31:09.253Z,56.62
2022-09-06T08:33:38.000Z,56.07
2022-09-06T08:36:06.428Z,57.34
2022-09-06T08:38:34.581Z,56.00
2022-09-06T08:41:41.805Z,55.40
2022-09-06T08:47:21.103Z,54.75
2022-09-06T08:49:52.975Z,55.70
2022-09-06T08:52:45.357Z,55.26
2022-09-06T08:55:37.525Z,54.90
2022-09-06T08:58:16.663Z,53.47
2022-09-06T09:00:58.650Z,53.82
2022-09-06T09:03:34.325Z,55.27
2022-09-06T09:06:05.373Z,53.21
2022-09-06T09:08:55.561Z,53.28
2022-09-06T09:11:25.621Z,52.56
2022-09-06T09:14:18.544Z,51.50
2022-09-06T09:16:51.474Z,51.67
2022-09-06T09:19:19.210Z,51.75
2022-09-06T09:21:47.989Z,51.55
2022-09-06T09:24:15.998Z,51.64
2022-09-06T09:27:11.286Z,51.72
2022-09-06T09:32:44.920Z,52.22
2022-09-06T09:35:21.523Z,51.01
2022-09-06T09:38:05.038Z,51.41
2022-09-06T09:40:41.669Z,50.62
2022-09-06T09:43:14.485Z,49.58
2022-09-06T09:45:43.363Z,48.91
2022-09-06T09:48:27.261Z,50.20
2022-09-06T09:50:56.165Z,49.54
2022-09-06T09:53:24.379Z,50.35
2022-09-06T09:56:00.641Z,50.83
2022-09-06T09:58:35.308Z,49.80
2022-09-06T10:01:11.829Z,48.98
2022-09-06T10:09:34.953Z,49.40
2022-09-06T10:12:02.786Z,48.35
2022-09-06T10:14:41.673Z,47.72
2022-09-06T10:17:20.769Z,49.45
2022-09-06T10:19:49.006Z,50.51
2022-09-06T10:22:28.450Z,48.27
2022-09-06T10:25:33.598Z,48.41
2022-09-06T10:28:11.210Z,48.43
2022-09-06T10:31:05.502Z,48.34
2022-09-06T10:33:51.455Z,47.30
2022-09-06T10:36:29.801Z,46.75
2022-09-06T10:39:32.927Z,46.46
2022-09-06T10:42:11.496Z,46.23
2022-09-06T10:45:00.361Z,46.10
2022-09-06T10:47:38.399Z,45.58
2022-09-06T10:50:07.051Z,44.48
2022-09-06T10:52:40.802Z,45.46
2022-09-06T10:55:14.332Z,44.42
2022-09-06T11:00:47.363Z,45.64
2022-09-06T11:06:18.318Z,44.63
2022-09-06T11:08:58.305Z,44.49
2022-09-06T11:11:39.565Z,45.59
2022-09-06T11:14:13.101Z,46.18
2022-09-06T11:16:53.958Z,46.28
2022-09-06T11:19:44.308Z,44.73
2022-09-06T11:22:44.180Z,43.83
2022-09-06T11:25:34.663Z,43.05
2022-09-06T11:28:07.275Z,43.03
2022-09-06T11:30:35.239Z,42.38
2022-09-06T11:33:30.451Z,42.14
2022-09-06T11:36:20.450Z,41.53
2022-09-06T11:39:00.974Z,42.80
2022-09-06T11:41:32.663Z,43.80
2022-09-06T11:44:00.552Z,41.94
2022-09-06T11:46:34.085Z,42.24
2022-09-06T11:49:06.237Z,41.93
2022-09-06T11:51:43.438Z,41.42
2022-09-06T11:54:22.953Z,41.53
2022-09-06T11:56:56.129Z,40.18
2022-09-06T11:59:34.382Z,40.94
2022-09-06T12:02:22.244Z,40.73
2022-09-06T12:05:00.421Z,41.36
2022-09-06T12:07:29.289Z,40.59
2022-09-06T12:09:57.732Z,40.30
2022-09-06T12:12:52.665Z,40.40
2022-09-06T12:15:24.857Z,41.42
2022-09-06T12:17:53.130Z,41.26
2022-09-06T12:20:48.490Z,40.86
2022-09-06T12:23:34.421Z,40.60
2022-09-06T12:26:12.314Z,39.85
2022-09-06T12:28:49.848Z,39.35
2022-09-06T12:31:34.893Z,39.71
2022-09-06T12:34:09.930Z,39.28
2022-09-06T12:36:57.734Z,39.49
2022-09-06T12:39:25.796Z,40.22
2022-09-06T12:42:01.377Z,39.21
2022-09-06T12:44:49.090Z,39.07
2022-09-06T12:47:28.694Z,39.20
2022-09-06T12:50:19.792Z,39.44
2022-09-06T12:52:54.097Z,38.78
2022-09-06T12:55:29.599Z,39.56
2022-09-06T12:57:59.558Z,38.62
2022-09-06T13:00:53.141Z,37.62
2022-09-06T13:03:26.569Z,38.25
2022-09-06T13:05:56.457Z,38.68
2022-09-06T13:08:28.630Z,37.46
2022-09-06T13:10:56.968Z,38.38
2022-09-06T13:13:26.674Z,38.15
2022-09-06T13:15:56.020Z,37.36
2022-09-06T13:18:36.208Z,37.83
2022-09-06T13:21:07.300Z,37.28
2022-09-06T13:23:47.565Z,37.18
2022-09-06T13:26:15.718Z,36.66
2022-09-06T13:28:43.335Z,37.45
2022-09-06T13:31:21.965Z,38.11
2022-09-06T13:33:57.316Z,38.36
2022-09-06T13:36:31.210Z,38.88
2022-09-06T13:39:00.282Z,37.37
2022-09-06T13:41:28.135Z,37.99
2022-09-06T13:44:16.760Z,37.94
2022-09-06T13:46:44.570Z,35.56
2022-09-06T13:49:12.290Z,35.71
2022-09-06T13:51:42.740Z,36.02
2022-09-06T13:54:13.008Z,36.58
2022-09-06T13:56:42.667Z,36.89
2022-09-06T13:59:11.385Z,37.07
2022-09-06T14:01:41.804Z,36.93
2022-09-06T14:04:13.020Z,38.16
2022-09-06T14:06:41.173Z,38.59
2022-09-06T14:09:09.309Z,37.85
2022-09-06T14:11:37.343Z,38.35
2022-09-06T14:14:05.435Z,39.90
2022-09-06T14:16:34.679Z,39.37
2022-09-06T14:19:03.762Z,39.19
2022-09-06T14:21:31.947Z,39.54
2022-09-06T14:24:18.201Z,39.69
2022-09-06T14:26:45.999Z,40.33
2022-09-06T14:29:13.493Z,40.22
2022-09-06T14:31:41.119Z,40.31
2022-09-06T14:34:08.769Z,40.09
2022-09-06T14:36:36.418Z,39.27
2022-09-06T14:39:04.417Z,39.79
2022-09-06T14:41:32.595Z,40.37
2022-09-06T14:44:01.092Z,40.06
2022-09-06T14:46:30.074Z,40.55
2022-09-06T14:49:04.367Z,40.46
2022-09-06T14:51:32.344Z,39.31
2022-09-06T14:54:04.643Z,40.10
2022-09-06T14:56:32.792Z,39.46
2022-09-06T14:59:00.751Z,39.94
2022-09-06T15:01:37.117Z,39.44
2022-09-06T15:04:07.351Z,40.31
2022-09-06T15:06:37.277Z,40.27
2022-09-06T15:09:05.765Z,39.65
2022-09-06T15:11:35.757Z,39.04
2022-09-06T15:14:05.623Z,39.26
2022-09-06T15:16:34.995Z,38.92
2022-09-06T15:19:03.272Z,39.32
2022-09-06T15:21:32.347Z,38.72
2022-09-06T15:24:01.863Z,38.07
2022-09-06T15:26:30.428Z,37.37
2022-09-06T15:28:58.284Z,37.58
2022-09-06T15:31:26.079Z,37.75
2022-09-06T15:33:54.077Z,37.36
2022-09-06T15:36:22.151Z,37.17
2022-09-06T15:38:50.614Z,36.79
2022-09-06T15:41:25.080Z,36.99
2022-09-06T15:43:55.214Z,36.76
2022-09-06T15:46:34.756Z,36.68
2022-09-06T15:49:05.719Z,37.58
2022-09-06T15:51:35.238Z,37.97
2022-09-06T15:54:02.959Z,38.22
2022-09-06T15:56:30.596Z,37.61
2022-09-06T15:58:58.140Z,38.77
2022-09-06T16:01:27.061Z,37.99
2022-09-06T16:04:03.790Z,38.00
2022-09-06T16:06:37.211Z,38.77
2022-09-06T16:09:17.046Z,39.77
2022-09-06T16:11:44.927Z,38.72
2022-09-06T16:14:14.575Z,38.34
2022-09-06T16:16:43.437Z,39.11
2022-09-06T16:19:12.923Z,40.02
2022-09-06T16:21:42.866Z,39.40
2022-09-06T16:24:13.825Z,40.11
2022-09-06T16:26:43.833Z,38.76
2022-09-06T16:29:12.956Z,38.85
2022-09-06T16:31:41.043Z,38.80
2022-09-06T16:34:10.109Z,39.15
2022-09-06T16:36:38.392Z,38.88
2022-09-06T16:39:07.495Z,39.16
2022-09-06T16:41:43.325Z,39.17
2022-09-06T16:44:17.192Z,38.86
2022-09-06T16:46:46.851Z,39.00
2022-09-06T16:49:17.205Z,39.76
2022-09-06T16:51:45.875Z,40.04
2022-09-06T16:54:15.516Z,40.42
2022-09-06T16:56:43.764Z,40.72
2022-09-06T16:59:12.308Z,40.68
2022-09-06T17:01:44.355Z,40.51
2022-09-06T17:04:13.189Z,40.11
2022-09-06T17:06:45.704Z,40.20
2022-09-06T17:09:20.043Z,40.21
2022-09-06T17:11:50.561Z,40.92
2022-09-06T17:14:18.642Z,40.96
2022-09-06T17:17:04.745Z,41.25
2022-09-06T17:19:43.936Z,41.56
2022-09-06T17:22:12.705Z,42.79
2022-09-06T17:24:42.666Z,41.46
2022-09-06T17:27:10.673Z,41.79
2022-09-06T17:29:40.093Z,42.94
2022-09-06T17:32:10.762Z,41.89
2022-09-06T17:34:39.879Z,41.64
2022-09-06T17:37:07.969Z,42.75
2022-09-06T17:39:36.419Z,42.93
2022-09-06T17:42:04.512Z,43.86
2022-09-06T17:44:33.205Z,44.25
2022-09-06T17:47:12.408Z,43.69
2022-09-06T17:49:41.715Z,43.22
2022-09-06T17:52:09.758Z,44.21
2022-09-06T17:54:37.470Z,44.76
2022-09-06T17:57:05.359Z,46.04
2022-09-06T17:59:35.413Z,45.92
2022-09-06T18:02:05.485Z,46.36
2022-09-06T18:04:33.660Z,46.42
2022-09-06T18:07:01.585Z,46.05
2022-09-06T18:09:29.351Z,46.10
2022-09-06T18:11:58.558Z,46.75
2022-09-06T18:14:28.816Z,47.03
2022-09-06T18:16:57.204Z,47.41
2022-09-06T18:19:26.927Z,47.35
2022-09-06T18:21:55.206Z,48.01
2022-09-06T18:24:23.215Z,46.97
2022-09-06T18:26:50.794Z,47.60
2022-09-06T18:29:20.888Z,47.39
2022-09-06T18:31:54.190Z,47.81
2022-09-06T18:34:24.679Z,47.43
2022-09-06T18:36:52.894Z,47.63
2022-09-06T18:39:23.205Z,47.24
2022-09-06T18:42:00.064Z,48.11
2022-09-06T18:44:34.964Z,47.92
2022-09-06T18:47:08.061Z,49.13
2022-09-06T18:49:38.499Z,48.69
2022-09-06T18:52:08.210Z,49.11
2022-09-06T18:54:36.015Z,48.65
2022-09-06T18:57:04.517Z,48.55
2022-09-06T18:59:32.392Z,49.83
2022-09-06T19:02:00.435Z,48.90
2022-09-06T19:04:28.666Z,49.77
2022-09-06T19:06:56.567Z,50.08
2022-09-06T19:09:24.419Z,50.83
2022-09-06T19:11:53.256Z,50.03
2022-09-06T19:14:21.687Z,49.74
2022-09-06T19:16:50.845Z,50.33
2022-09-06T19:19:18.889Z,52.15
2022-09-06T19:21:46.604Z,52.62
2022-09-06T19:24:15.780Z,53.84
2022-09-06T19:26:44.899Z,54.22
2022-09-06T19:29:17.786Z,53.56
2022-09-06T19:31:47.344Z,53.53
2022-09-06T19:34:16.209Z,52.79
2022-09-06T19:36:45.109Z,51.98
2022-09-06T19:39:15.915Z,53.38
2022-09-06T19:41:45.157Z,54.33
2022-09-06T19:44:14.684Z,54.61
2022-09-06T19:46:46.189Z,55.90
2022-09-06T19:49:19.381Z,56.01
2022-09-06T19:51:48.982Z,55.94
2022-09-06T19:54:18.057Z,56.09
2022-09-06T19:56:46.588Z,55.01
2022-09-06T19:59:17.805Z,54.00
2022-09-06T20:01:46.501Z,55.36
2022-09-06T20:04:15.083Z,55.76
2022-09-06T20:06:43.849Z,56.03
2022-09-06T20:09:11.969Z,56.84
2022-09-06T20:11:41.321Z,58.50
2022-09-06T20:14:11.439Z,58.14
2022-09-06T20:16:42.196Z,59.29
2022-09-06T20:19:12.332Z,58.42
2022-09-06T20:21:41.745Z,58.40
2022-09-06T20:24:11.199Z,57.53
2022-09-06T20:26:39.562Z,57.16
2022-09-06T20:29:07.907Z,56.96
2022-09-06T20:31:37.225Z,56.32
2022-09-06T20:34:06.443Z,56.77
2022-09-06T20:36:34.380Z,57.35
2022-09-06T20:39:02.760Z,57.00
2022-09-06T20:41:31.100Z,59.69
2022-09-06T20:43:59.888Z,59.35
2022-09-06T20:46:32.863Z,57.94
2022-09-06T20:49:04.744Z,58.35
2022-09-06T20:51:34.871Z,58.16
2022-09-06T20:54:04.983Z,58.57
2022-09-06T20:56:40.126Z,58.95
2022-09-06T20:59:10.040Z,58.55
2022-09-06T21:01:41.124Z,58.68
2022-09-06T21:04:12.632Z,59.98
2022-09-06T21:06:40.875Z,59.87
2022-09-06T21:09:13.736Z,58.34
2022-09-06T21:11:43.441Z,59.41
2022-09-06T21:14:11.837Z,60.15
2022-09-06T21:16:40.873Z,60.49
2022-09-06T21:19:10.062Z,61.55
2022-09-06T21:21:38.793Z,61.05
2022-09-06T21:24:07.516Z,59.87
2022-09-06T21:26:35.528Z,58.96
2022-09-06T21:29:04.058Z,60.39
2022-09-06T21:31:33.586Z,61.43
2022-09-06T21:34:05.233Z,61.22
2022-09-06T21:36:35.858Z,61.80
2022-09-06T21:39:06.174Z,62.10
2022-09-06T21:41:35.200Z,60.94
2022-09-06T21:44:04.386Z,60.65
2022-09-06T21:46:35.676Z,61.63
2022-09-06T21:49:07.380Z,61.01
2022-09-06T21:51:35.747Z,60.42
2022-09-06T21:54:04.759Z,60.26
2022-09-06T21:56:37.422Z,60.45
2022-09-06T21:59:05.604Z,60.51
2022-09-06T22:01:34.896Z,60.79
2022-09-06T22:04:03.370Z,61.40
2022-09-06T22:06:32.807Z,61.07
2022-09-06T22:09:02.491Z,61.34
2022-09-06T22:11:32.471Z,60.09
2022-09-06T22:14:04.684Z,59.96
2022-09-06T22:16:35.380Z,59.57
2022-09-06T22:19:05.003Z,60.32
2022-09-06T22:21:33.751Z,59.92
2022-09-06T22:24:05.728Z,58.90
2022-09-06T22:26:35.165Z,58.87
2022-09-06T22:29:06.202Z,59.28
2022-09-06T22:31:35.312Z,59.07
2022-09-06T22:34:04.072Z,58.53
2022-09-06T22:36:32.506Z,58.19
2022-09-06T22:39:00.103Z,59.47
2022-09-06T22:41:30.530Z,59.55
2022-09-06T22:44:00.586Z,59.57
2022-09-06T22:46:28.870Z,59.42
2022-09-06T22:48:56.477Z,59.91
2022-09-06T22:51:24.268Z,59.45
2022-09-06T22:53:51.932Z,59.31
2022-09-06T22:56:19.808Z,59.78
2022-09-06T22:58:47.609Z,59.67
2022-09-06T23:01:16.569Z,59.82
2022-09-06T23:03:45.069Z,58.48
2022-09-06T23:06:12.765Z,56.96
2022-09-06T23:08:41.323Z,57.11
2022-09-06T23:11:12.459Z,57.32
2022-09-06T23:13:44.312Z,56.86
2022-09-06T23:16:15.070Z,57.20
2022-09-06T23:18:43.538Z,57.35
2022-09-06T23:21:13.703Z,58.81
2022-09-06T23:23:41.916Z,60.24
2022-09-06T23:26:15.786Z,60.36
2022-09-06T23:28:43.824Z,58.80
2022-09-06T23:31:14.297Z,58.98
2022-09-06T23:33:42.692Z,57.96
2022-09-06T23:36:12.799Z,58.51
2022-09-06T23:38:41.513Z,58.03
2022-09-06T23:41:10.417Z,57.94
2022-09-06T23:43:38.460Z,58.49
2022-09-06T23:46:06.696Z,59.38
2022-09-06T23:48:35.029Z,60.54
2022-09-06T23:51:02.695Z,60.27
2022-09-06T23:53:30.551Z,60.28
2022-09-06T23:55:58.283Z,60.17
2022-09-06T23:58:26.164Z,60.57
